sensor_id;sensor_type;location;lat;lon;timestamp;temperature;humidity
997;DHT22;487;50.126;8.698;2023-08-01T04:00:58;17.90;99.90
997;DHT22;487;50.126;8.698;2023-08-01T04:03:26;17.90;99.90
997;DHT22;487;50.126;8.698;2023-08-01T04:05:54;17.80;99.90
997;DHT22;487;50.126;8.698;2023-08-01T04:08:22;17.80;99.90
997;DHT22;487;50.126;8.698;2023-08-01T04:10:50;17.80;1.00
997;DHT22;487;50.126;8.698;2023-08-01T04:13:18;17.70;1.00
997;DHT22;487;50.126;8.698;2023-08-01T04:15:45;17.70;1.00
997;DHT22;487;50.126;8.698;2023-08-01T04:18:15;17.80;1.00
997;DHT22;487;50.126;8.698;2023-08-01T04:20:43;17.80;1.00
997;DHT22;487;50.126;8.698;2023-08-01T04:23:10;17.80;1.00
997;DHT22;487;50.126;8.698;2023-08-01T04:25:40;17.70;1.00
997;DHT22;487;50.126;8.698;2023-08-01T04:28:08;17.70;1.00
997;DHT22;487;50.126;8.698;2023-08-01T04:30:36;17.70;1.00
997;DHT22;487;50.126;8.698;2023-08-01T04:33:05;17.80;1.00
997;DHT22;487;50.126;8.698;2023-08-01T04:35:34;17.80;1.00
997;DHT22;487;50.126;8.698;2023-08-01T04:38:02;17.80;1.00
997;DHT22;487;50.126;8.698;2023-08-01T04:40:29;17.80;1.00
997;DHT22;487;50.126;8.698;2023-08-01T04:42:57;17.80;1.00
997;DHT22;487;50.126;8.698;2023-08-01T04:47:54;17.80;1.00
997;DHT22;487;50.126;8.698;2023-08-01T04:50:22;17.70;1.00
997;DHT22;487;50.126;8.698;2023-08-01T04:52:51;17.90;1.00
997;DHT22;487;50.126;8.698;2023-08-01T04:55:19;17.80;1.00
997;DHT22;487;50.126;8.698;2023-08-01T04:57:47;17.80;1.00
997;DHT22;487;50.126;8.698;2023-08-01T05:00:15;17.80;1.00
997;DHT22;487;50.126;8.698;2023-08-01T05:02:42;17.80;1.00
997;DHT22;487;50.126;8.698;2023-08-01T05:05:10;17.90;1.00
997;DHT22;487;50.126;8.698;2023-08-01T05:07:38;17.90;1.00
997;DHT22;487;50.126;8.698;2023-08-01T05:10:08;17.90;1.00
997;DHT22;487;50.126;8.698;2023-08-01T05:12:36;18.00;1.00
997;DHT22;487;50.126;8.698;2023-08-01T05:15:05;18.10;1.00
997;DHT22;487;50.126;8.698;2023-08-01T05:17:33;18.10;1.00
997;DHT22;487;50.126;8.698;2023-08-01T05:20:01;18.10;1.00
997;DHT22;487;50.126;8.698;2023-08-01T05:22:31;18.10;1.00
997;DHT22;487;50.126;8.698;2023-08-01T05:24:59;18.10;99.90
997;DHT22;487;50.126;8.698;2023-08-01T05:27:28;18.00;99.90
997;DHT22;487;50.126;8.698;2023-08-01T05:29:56;18.00;99.90
997;DHT22;487;50.126;8.698;2023-08-01T05:32:23;17.90;99.90
997;DHT22;487;50.126;8.698;2023-08-01T05:37:19;17.80;99.90
997;DHT22;487;50.126;8.698;2023-08-01T05:39:47;17.80;1.00
997;DHT22;487;50.126;8.698;2023-08-01T05:42:15;17.70;1.00
997;DHT22;487;50.126;8.698;2023-08-01T05:44:45;17.70;1.00
997;DHT22;487;50.126;8.698;2023-08-01T05:47:12;17.70;1.00
997;DHT22;487;50.126;8.698;2023-08-01T05:49:40;17.60;1.00
997;DHT22;487;50.126;8.698;2023-08-01T05:52:08;17.70;1.00
997;DHT22;487;50.126;8.698;2023-08-01T05:54:36;17.70;1.00
997;DHT22;487;50.126;8.698;2023-08-01T05:57:05;17.70;1.00
997;DHT22;487;50.126;8.698;2023-08-01T05:59:33;17.70;1.00
997;DHT22;487;50.126;8.698;2023-08-01T06:02:03;17.60;1.00
997;DHT22;487;50.126;8.698;2023-08-01T06:04:31;17.50;1.00
997;DHT22;487;50.126;8.698;2023-08-01T06:06:59;17.50;1.00
997;DHT22;487;50.126;8.698;2023-08-01T06:09:27;17.40;1.00
997;DHT22;487;50.126;8.698;2023-08-01T06:11:55;17.50;1.00
997;DHT22;487;50.126;8.698;2023-08-01T06:14:23;17.50;1.00
997;DHT22;487;50.126;8.698;2023-08-01T06:16:51;17.50;1.00
997;DHT22;487;50.126;8.698;2023-08-01T06:19:20;17.50;1.00
997;DHT22;487;50.126;8.698;2023-08-01T06:21:48;17.50;1.00
997;DHT22;487;50.126;8.698;2023-08-01T06:24:16;17.50;99.90
997;DHT22;487;50.126;8.698;2023-08-01T06:26:43;17.50;99.90
997;DHT22;487;50.126;8.698;2023-08-01T06:29:11;17.50;99.90
997;DHT22;487;50.126;8.698;2023-08-01T06:31:39;17.50;99.90
997;DHT22;487;50.126;8.698;2023-08-01T06:34:07;17.60;99.90
997;DHT22;487;50.126;8.698;2023-08-01T06:36:36;17.60;99.90
997;DHT22;487;50.126;8.698;2023-08-01T06:39:05;17.80;99.90
997;DHT22;487;50.126;8.698;2023-08-01T06:41:33;17.90;99.90
997;DHT22;487;50.126;8.698;2023-08-01T06:44:00;18.00;99.90
997;DHT22;487;50.126;8.698;2023-08-01T06:46:28;18.10;99.90
997;DHT22;487;50.126;8.698;2023-08-01T06:48:56;18.10;99.90
997;DHT22;487;50.126;8.698;2023-08-01T06:51:24;18.10;99.90
997;DHT22;487;50.126;8.698;2023-08-01T06:53:53;18.10;99.90
997;DHT22;487;50.126;8.698;2023-08-01T06:56:21;18.10;99.90
997;DHT22;487;50.126;8.698;2023-08-01T06:58:49;18.20;74.50
997;DHT22;487;50.126;8.698;2023-08-01T07:01:17;18.30;1.00
997;DHT22;487;50.126;8.698;2023-08-01T07:03:45;18.20;5.90
997;DHT22;487;50.126;8.698;2023-08-01T07:06:13;18.30;1.00
997;DHT22;487;50.126;8.698;2023-08-01T07:08:41;20.30;1.00
997;DHT22;487;50.126;8.698;2023-08-01T07:11:10;18.40;1.00
997;DHT22;487;50.126;8.698;2023-08-01T07:13:38;18.30;1.00
997;DHT22;487;50.126;8.698;2023-08-01T07:16:06;18.40;1.00
997;DHT22;487;50.126;8.698;2023-08-01T07:18:34;18.40;1.00
997;DHT22;487;50.126;8.698;2023-08-01T07:21:02;18.40;1.00
997;DHT22;487;50.126;8.698;2023-08-01T07:23:33;18.40;1.00
997;DHT22;487;50.126;8.698;2023-08-01T07:26:02;18.30;1.00
997;DHT22;487;50.126;8.698;2023-08-01T07:28:31;18.20;1.00
997;DHT22;487;50.126;8.698;2023-08-01T07:31:00;18.30;1.00
997;DHT22;487;50.126;8.698;2023-08-01T07:33:28;18.20;1.00
997;DHT22;487;50.126;8.698;2023-08-01T07:35:56;18.20;1.00
997;DHT22;487;50.126;8.698;2023-08-01T07:38:24;18.20;1.00
997;DHT22;487;50.126;8.698;2023-08-01T07:40:54;18.20;1.00
997;DHT22;487;50.126;8.698;2023-08-01T07:43:22;18.20;1.00
997;DHT22;487;50.126;8.698;2023-08-01T07:45:55;18.30;1.00
997;DHT22;487;50.126;8.698;2023-08-01T07:48:23;18.30;1.00
997;DHT22;487;50.126;8.698;2023-08-01T07:50:52;18.10;1.00
997;DHT22;487;50.126;8.698;2023-08-01T07:53:20;18.00;1.00
997;DHT22;487;50.126;8.698;2023-08-01T07:55:51;18.00;1.00
997;DHT22;487;50.126;8.698;2023-08-01T07:58:19;18.00;1.00
997;DHT22;487;50.126;8.698;2023-08-01T08:00:47;17.90;99.90
997;DHT22;487;50.126;8.698;2023-08-01T08:03:17;17.90;99.90
997;DHT22;487;50.126;8.698;2023-08-01T08:05:45;17.90;99.90
997;DHT22;487;50.126;8.698;2023-08-01T08:08:14;18.00;99.90
997;DHT22;487;50.126;8.698;2023-08-01T08:10:42;18.10;99.90
997;DHT22;487;50.126;8.698;2023-08-01T08:13:10;18.10;99.90
997;DHT22;487;50.126;8.698;2023-08-01T08:15:38;18.10;99.90
997;DHT22;487;50.126;8.698;2023-08-01T08:18:05;18.20;99.90
997;DHT22;487;50.126;8.698;2023-08-01T08:20:42;18.20;99.90
997;DHT22;487;50.126;8.698;2023-08-01T08:23:11;18.40;99.90
997;DHT22;487;50.126;8.698;2023-08-01T08:25:40;18.40;99.90
997;DHT22;487;50.126;8.698;2023-08-01T08:28:08;18.50;99.90
997;DHT22;487;50.126;8.698;2023-08-01T08:30:36;18.70;99.90
997;DHT22;487;50.126;8.698;2023-08-01T08:33:04;18.80;99.90
997;DHT22;487;50.126;8.698;2023-08-01T08:35:35;18.90;99.90
997;DHT22;487;50.126;8.698;2023-08-01T08:38:03;18.90;99.90
997;DHT22;487;50.126;8.698;2023-08-01T08:40:32;18.90;99.90
997;DHT22;487;50.126;8.698;2023-08-01T08:43:01;19.00;99.90
997;DHT22;487;50.126;8.698;2023-08-01T08:45:33;19.10;99.90
997;DHT22;487;50.126;8.698;2023-08-01T08:48:06;19.20;99.90
997;DHT22;487;50.126;8.698;2023-08-01T08:50:38;19.30;99.90
997;DHT22;487;50.126;8.698;2023-08-01T08:53:06;19.40;99.90
997;DHT22;487;50.126;8.698;2023-08-01T08:55:39;19.40;99.90
997;DHT22;487;50.126;8.698;2023-08-01T08:58:08;19.60;99.90
997;DHT22;487;50.126;8.698;2023-08-01T09:00:36;19.60;99.90
997;DHT22;487;50.126;8.698;2023-08-01T09:03:04;19.70;99.90
997;DHT22;487;50.126;8.698;2023-08-01T09:05:40;19.80;99.90
997;DHT22;487;50.126;8.698;2023-08-01T09:08:16;19.90;99.90
997;DHT22;487;50.126;8.698;2023-08-01T09:10:45;20.00;99.90
997;DHT22;487;50.126;8.698;2023-08-01T09:15:42;20.00;99.90
997;DHT22;487;50.126;8.698;2023-08-01T09:18:11;20.10;99.90
997;DHT22;487;50.126;8.698;2023-08-01T09:20:45;20.10;99.90
997;DHT22;487;50.126;8.698;2023-08-01T09:23:13;20.20;99.90
997;DHT22;487;50.126;8.698;2023-08-01T09:25:42;20.20;99.90
997;DHT22;487;50.126;8.698;2023-08-01T09:28:17;20.20;99.90
997;DHT22;487;50.126;8.698;2023-08-01T09:30:49;20.40;99.90
997;DHT22;487;50.126;8.698;2023-08-01T09:33:18;20.40;99.90
997;DHT22;487;50.126;8.698;2023-08-01T09:35:49;20.40;99.90
997;DHT22;487;50.126;8.698;2023-08-01T09:38:17;20.50;99.90
997;DHT22;487;50.126;8.698;2023-08-01T09:40:47;20.60;99.90
997;DHT22;487;50.126;8.698;2023-08-01T09:45:51;20.80;99.90
997;DHT22;487;50.126;8.698;2023-08-01T09:48:24;20.80;99.90
997;DHT22;487;50.126;8.698;2023-08-01T09:51:04;20.90;99.90
997;DHT22;487;50.126;8.698;2023-08-01T09:53:33;21.00;99.90
997;DHT22;487;50.126;8.698;2023-08-01T09:56:02;21.10;99.90
997;DHT22;487;50.126;8.698;2023-08-01T09:58:33;21.20;99.90
997;DHT22;487;50.126;8.698;2023-08-01T10:01:01;21.20;99.90
997;DHT22;487;50.126;8.698;2023-08-01T10:03:29;21.10;99.90
997;DHT22;487;50.126;8.698;2023-08-01T10:05:59;21.00;99.90
997;DHT22;487;50.126;8.698;2023-08-01T10:08:29;21.00;99.90
997;DHT22;487;50.126;8.698;2023-08-01T10:10:59;21.10;99.90
997;DHT22;487;50.126;8.698;2023-08-01T10:13:28;21.10;99.90
997;DHT22;487;50.126;8.698;2023-08-01T10:15:57;21.10;99.90
997;DHT22;487;50.126;8.698;2023-08-01T10:18:25;21.20;99.90
997;DHT22;487;50.126;8.698;2023-08-01T10:20:54;21.20;99.90
997;DHT22;487;50.126;8.698;2023-08-01T10:23:24;21.20;99.90
997;DHT22;487;50.126;8.698;2023-08-01T10:25:52;21.00;99.90
997;DHT22;487;50.126;8.698;2023-08-01T10:28:31;20.90;99.90
997;DHT22;487;50.126;8.698;2023-08-01T10:31:09;20.80;99.90
997;DHT22;487;50.126;8.698;2023-08-01T10:33:37;20.70;99.90
997;DHT22;487;50.126;8.698;2023-08-01T10:36:13;20.80;99.90
997;DHT22;487;50.126;8.698;2023-08-01T10:38:46;21.00;99.90
997;DHT22;487;50.126;8.698;2023-08-01T10:41:19;21.10;99.40
997;DHT22;487;50.126;8.698;2023-08-01T10:46:15;21.40;97.00
997;DHT22;487;50.126;8.698;2023-08-01T10:48:50;21.50;93.80
997;DHT22;487;50.126;8.698;2023-08-01T10:51:19;21.60;91.00
997;DHT22;487;50.126;8.698;2023-08-01T10:53:48;21.50;84.80
997;DHT22;487;50.126;8.698;2023-08-01T10:56:18;21.50;82.80
997;DHT22;487;50.126;8.698;2023-08-01T10:58:47;21.60;80.50
997;DHT22;487;50.126;8.698;2023-08-01T11:01:15;21.70;85.60
997;DHT22;487;50.126;8.698;2023-08-01T11:03:43;21.60;90.00
997;DHT22;487;50.126;8.698;2023-08-01T11:06:11;21.60;96.10
997;DHT22;487;50.126;8.698;2023-08-01T11:08:40;21.60;94.90
997;DHT22;487;50.126;8.698;2023-08-01T11:11:13;21.60;94.60
997;DHT22;487;50.126;8.698;2023-08-01T11:13:50;21.60;95.70
997;DHT22;487;50.126;8.698;2023-08-01T11:16:18;21.60;96.60
997;DHT22;487;50.126;8.698;2023-08-01T11:18:46;21.60;86.90
997;DHT22;487;50.126;8.698;2023-08-01T11:21:25;21.50;76.80
997;DHT22;487;50.126;8.698;2023-08-01T11:26:23;21.50;79.80
997;DHT22;487;50.126;8.698;2023-08-01T11:28:51;21.60;82.20
997;DHT22;487;50.126;8.698;2023-08-01T11:31:19;21.70;77.00
997;DHT22;487;50.126;8.698;2023-08-01T11:33:55;21.80;75.00
997;DHT22;487;50.126;8.698;2023-08-01T11:36:26;21.70;72.00
997;DHT22;487;50.126;8.698;2023-08-01T11:38:56;21.50;78.40
997;DHT22;487;50.126;8.698;2023-08-01T11:41:26;21.50;77.70
997;DHT22;487;50.126;8.698;2023-08-01T11:43:55;21.70;83.30
997;DHT22;487;50.126;8.698;2023-08-01T11:46:29;21.70;92.20
997;DHT22;487;50.126;8.698;2023-08-01T11:48:58;21.60;52.20
997;DHT22;487;50.126;8.698;2023-08-01T11:51:26;21.50;53.20
997;DHT22;487;50.126;8.698;2023-08-01T11:56:31;21.50;52.80
997;DHT22;487;50.126;8.698;2023-08-01T11:58:59;21.50;53.90
997;DHT22;487;50.126;8.698;2023-08-01T12:01:28;21.60;52.10
997;DHT22;487;50.126;8.698;2023-08-01T12:03:56;21.70;66.00
997;DHT22;487;50.126;8.698;2023-08-01T12:06:25;21.60;61.10
997;DHT22;487;50.126;8.698;2023-08-01T12:08:53;21.60;64.00
997;DHT22;487;50.126;8.698;2023-08-01T12:11:22;21.90;50.90
997;DHT22;487;50.126;8.698;2023-08-01T12:14:02;22.00;52.10
997;DHT22;487;50.126;8.698;2023-08-01T12:16:30;22.00;62.70
997;DHT22;487;50.126;8.698;2023-08-01T12:18:58;22.00;63.40
997;DHT22;487;50.126;8.698;2023-08-01T12:21:27;21.90;54.40
997;DHT22;487;50.126;8.698;2023-08-01T12:23:55;21.90;60.50
997;DHT22;487;50.126;8.698;2023-08-01T12:26:24;21.90;71.40
997;DHT22;487;50.126;8.698;2023-08-01T12:28:52;22.10;74.00
997;DHT22;487;50.126;8.698;2023-08-01T12:31:22;22.20;66.30
997;DHT22;487;50.126;8.698;2023-08-01T12:33:50;22.30;74.60
997;DHT22;487;50.126;8.698;2023-08-01T12:36:20;22.20;62.00
997;DHT22;487;50.126;8.698;2023-08-01T12:38:48;22.20;66.30
997;DHT22;487;50.126;8.698;2023-08-01T12:41:16;22.00;58.50
997;DHT22;487;50.126;8.698;2023-08-01T12:43:44;22.00;67.60
997;DHT22;487;50.126;8.698;2023-08-01T12:46:12;21.80;58.70
997;DHT22;487;50.126;8.698;2023-08-01T12:48:41;21.80;63.30
997;DHT22;487;50.126;8.698;2023-08-01T12:51:09;21.60;80.10
997;DHT22;487;50.126;8.698;2023-08-01T12:53:37;21.30;99.90
997;DHT22;487;50.126;8.698;2023-08-01T12:56:06;21.00;99.90
997;DHT22;487;50.126;8.698;2023-08-01T12:58:34;20.90;99.90
997;DHT22;487;50.126;8.698;2023-08-01T13:01:03;20.80;99.90
997;DHT22;487;50.126;8.698;2023-08-01T13:06:01;20.50;99.90
997;DHT22;487;50.126;8.698;2023-08-01T13:10:57;20.30;99.90
997;DHT22;487;50.126;8.698;2023-08-01T13:13:28;20.40;99.90
997;DHT22;487;50.126;8.698;2023-08-01T13:15:56;20.60;99.90
997;DHT22;487;50.126;8.698;2023-08-01T13:18:24;20.60;99.90
997;DHT22;487;50.126;8.698;2023-08-01T13:20:53;20.80;99.90
997;DHT22;487;50.126;8.698;2023-08-01T13:23:22;21.00;99.90
997;DHT22;487;50.126;8.698;2023-08-01T13:25:50;21.20;99.90
997;DHT22;487;50.126;8.698;2023-08-01T13:28:17;21.20;99.90
997;DHT22;487;50.126;8.698;2023-08-01T13:30:45;21.40;99.90
997;DHT22;487;50.126;8.698;2023-08-01T13:33:13;21.50;99.90
997;DHT22;487;50.126;8.698;2023-08-01T13:38:09;21.70;99.90
997;DHT22;487;50.126;8.698;2023-08-01T13:40:38;22.00;99.90
997;DHT22;487;50.126;8.698;2023-08-01T13:43:09;22.10;99.90
997;DHT22;487;50.126;8.698;2023-08-01T13:45:37;22.20;99.90
997;DHT22;487;50.126;8.698;2023-08-01T13:48:05;22.30;92.80
997;DHT22;487;50.126;8.698;2023-08-01T13:50:34;22.10;92.50
997;DHT22;487;50.126;8.698;2023-08-01T13:53:02;22.10;98.40
997;DHT22;487;50.126;8.698;2023-08-01T15:22:19;20.70;92.50
997;DHT22;487;50.126;8.698;2023-08-01T15:24:48;20.70;98.00
997;DHT22;487;50.126;8.698;2023-08-01T15:27:16;20.90;94.30
997;DHT22;487;50.126;8.698;2023-08-01T15:32:13;21.60;93.30
997;DHT22;487;50.126;8.698;2023-08-01T15:34:41;21.60;92.60
997;DHT22;487;50.126;8.698;2023-08-01T15:37:10;21.60;75.80
997;DHT22;487;50.126;8.698;2023-08-01T15:39:38;21.40;69.80
997;DHT22;487;50.126;8.698;2023-08-01T15:42:07;21.10;61.30
997;DHT22;487;50.126;8.698;2023-08-01T15:44:35;21.00;68.70
997;DHT22;487;50.126;8.698;2023-08-01T15:47:03;20.90;67.10
997;DHT22;487;50.126;8.698;2023-08-01T15:49:31;20.90;73.30
997;DHT22;487;50.126;8.698;2023-08-01T15:51:58;20.90;71.60
997;DHT22;487;50.126;8.698;2023-08-01T15:59:28;20.80;79.00
997;DHT22;487;50.126;8.698;2023-08-01T16:01:55;20.90;78.90
997;DHT22;487;50.126;8.698;2023-08-01T16:04:23;20.90;76.80
997;DHT22;487;50.126;8.698;2023-08-01T16:06:51;20.80;76.00
997;DHT22;487;50.126;8.698;2023-08-01T16:09:19;20.90;81.30
997;DHT22;487;50.126;8.698;2023-08-01T16:11:47;20.90;75.40
997;DHT22;487;50.126;8.698;2023-08-01T16:17:05;21.10;79.10
997;DHT22;487;50.126;8.698;2023-08-01T16:19:33;21.30;80.70
997;DHT22;487;50.126;8.698;2023-08-01T16:24:29;21.80;75.80
997;DHT22;487;50.126;8.698;2023-08-01T16:26:57;22.00;71.80
997;DHT22;487;50.126;8.698;2023-08-01T16:29:25;22.10;66.60
997;DHT22;487;50.126;8.698;2023-08-01T16:31:53;22.00;66.90
997;DHT22;487;50.126;8.698;2023-08-01T16:34:22;22.30;69.50
997;DHT22;487;50.126;8.698;2023-08-01T16:39:18;22.70;70.10
997;DHT22;487;50.126;8.698;2023-08-01T16:46:42;22.50;56.80
997;DHT22;487;50.126;8.698;2023-08-01T16:51:50;22.10;54.70
997;DHT22;487;50.126;8.698;2023-08-01T16:54:18;21.80;64.00
997;DHT22;487;50.126;8.698;2023-08-01T16:56:45;21.80;68.80
997;DHT22;487;50.126;8.698;2023-08-01T16:59:13;21.80;70.50
997;DHT22;487;50.126;8.698;2023-08-01T17:04:10;21.60;73.20
997;DHT22;487;50.126;8.698;2023-08-01T17:06:38;21.40;76.70
997;DHT22;487;50.126;8.698;2023-08-01T17:09:08;21.30;76.90
997;DHT22;487;50.126;8.698;2023-08-01T17:11:37;21.20;76.30
997;DHT22;487;50.126;8.698;2023-08-01T17:14:05;21.00;77.60
997;DHT22;487;50.126;8.698;2023-08-01T17:16:33;20.70;76.50
997;DHT22;487;50.126;8.698;2023-08-01T17:19:01;20.70;82.30
997;DHT22;487;50.126;8.698;2023-08-01T17:23:58;20.70;84.70
997;DHT22;487;50.126;8.698;2023-08-01T17:26:27;21.00;82.90
997;DHT22;487;50.126;8.698;2023-08-01T17:28:55;21.30;81.60
997;DHT22;487;50.126;8.698;2023-08-01T17:31:23;21.60;79.00
997;DHT22;487;50.126;8.698;2023-08-01T17:38:48;21.70;65.90
997;DHT22;487;50.126;8.698;2023-08-01T17:41:17;21.40;60.70
997;DHT22;487;50.126;8.698;2023-08-01T17:43:47;21.00;62.20
997;DHT22;487;50.126;8.698;2023-08-01T17:46:15;20.80;66.80
997;DHT22;487;50.126;8.698;2023-08-01T17:48:43;20.70;67.70
997;DHT22;487;50.126;8.698;2023-08-01T17:51:11;20.60;68.60
997;DHT22;487;50.126;8.698;2023-08-01T17:56:10;20.30;66.70
997;DHT22;487;50.126;8.698;2023-08-01T17:58:38;20.40;67.30
997;DHT22;487;50.126;8.698;2023-08-01T18:01:07;20.40;67.70
997;DHT22;487;50.126;8.698;2023-08-01T18:03:36;20.40;67.50
997;DHT22;487;50.126;8.698;2023-08-01T18:06:08;20.40;62.90
997;DHT22;487;50.126;8.698;2023-08-01T18:11:09;20.40;61.90
997;DHT22;487;50.126;8.698;2023-08-01T18:13:38;20.30;63.30
997;DHT22;487;50.126;8.698;2023-08-01T18:16:08;20.30;63.50
997;DHT22;487;50.126;8.698;2023-08-01T18:18:37;20.30;65.50
997;DHT22;487;50.126;8.698;2023-08-01T18:21:05;20.20;64.00
997;DHT22;487;50.126;8.698;2023-08-01T18:23:34;20.20;66.00
997;DHT22;487;50.126;8.698;2023-08-01T18:26:03;20.10;67.40
997;DHT22;487;50.126;8.698;2023-08-01T18:31:07;20.10;70.10
997;DHT22;487;50.126;8.698;2023-08-01T18:33:35;20.00;67.60
997;DHT22;487;50.126;8.698;2023-08-01T18:36:05;20.00;70.70
997;DHT22;487;50.126;8.698;2023-08-01T18:38:38;20.10;73.50
997;DHT22;487;50.126;8.698;2023-08-01T18:41:06;20.40;69.20
997;DHT22;487;50.126;8.698;2023-08-01T18:43:34;20.40;67.30
997;DHT22;487;50.126;8.698;2023-08-01T18:46:03;20.50;66.20
997;DHT22;487;50.126;8.698;2023-08-01T18:48:33;20.40;66.50
997;DHT22;487;50.126;8.698;2023-08-01T18:51:09;20.20;67.20
997;DHT22;487;50.126;8.698;2023-08-01T18:53:37;20.10;65.50
997;DHT22;487;50.126;8.698;2023-08-01T18:56:06;19.90;67.10
997;DHT22;487;50.126;8.698;2023-08-01T18:58:39;19.90;68.50
997;DHT22;487;50.126;8.698;2023-08-01T19:01:12;20.00;66.90
997;DHT22;487;50.126;8.698;2023-08-01T19:03:42;19.70;62.20
997;DHT22;487;50.126;8.698;2023-08-01T19:06:11;19.70;64.30
997;DHT22;487;50.126;8.698;2023-08-01T19:08:39;19.70;75.90
997;DHT22;487;50.126;8.698;2023-08-01T19:11:07;19.70;60.90
997;DHT22;487;50.126;8.698;2023-08-01T19:13:35;19.50;59.60
997;DHT22;487;50.126;8.698;2023-08-01T19:16:03;19.60;61.00
997;DHT22;487;50.126;8.698;2023-08-01T19:18:31;19.70;59.10
997;DHT22;487;50.126;8.698;2023-08-01T19:21:00;19.60;57.70
997;DHT22;487;50.126;8.698;2023-08-01T19:23:29;19.60;58.20
997;DHT22;487;50.126;8.698;2023-08-01T19:26:05;19.50;57.20
997;DHT22;487;50.126;8.698;2023-08-01T19:28:33;19.60;58.60
997;DHT22;487;50.126;8.698;2023-08-01T19:31:01;19.50;58.50
997;DHT22;487;50.126;8.698;2023-08-01T19:33:29;19.50;59.90
997;DHT22;487;50.126;8.698;2023-08-01T19:35:57;19.50;59.40
997;DHT22;487;50.126;8.698;2023-08-01T19:38:26;19.40;61.40
997;DHT22;487;50.126;8.698;2023-08-01T19:40:57;19.40;64.50
997;DHT22;487;50.126;8.698;2023-08-01T19:43:25;19.40;64.60
997;DHT22;487;50.126;8.698;2023-08-01T19:45:56;19.40;66.00
997;DHT22;487;50.126;8.698;2023-08-01T19:48:24;19.40;68.50
997;DHT22;487;50.126;8.698;2023-08-01T19:50:52;19.30;69.10
997;DHT22;487;50.126;8.698;2023-08-01T19:53:21;19.30;71.80
997;DHT22;487;50.126;8.698;2023-08-01T19:55:52;19.40;72.50
997;DHT22;487;50.126;8.698;2023-08-01T19:58:20;19.40;73.20
997;DHT22;487;50.126;8.698;2023-08-01T20:00:49;19.40;74.50
997;DHT22;487;50.126;8.698;2023-08-01T20:03:17;19.50;75.50
997;DHT22;487;50.126;8.698;2023-08-01T20:05:46;19.40;75.20
997;DHT22;487;50.126;8.698;2023-08-01T20:10:42;19.40;78.80
997;DHT22;487;50.126;8.698;2023-08-01T20:13:12;19.30;79.00
997;DHT22;487;50.126;8.698;2023-08-01T20:15:39;19.30;81.80
997;DHT22;487;50.126;8.698;2023-08-01T20:18:07;19.20;84.10
997;DHT22;487;50.126;8.698;2023-08-01T20:20:35;19.20;86.70
997;DHT22;487;50.126;8.698;2023-08-01T20:23:03;19.20;87.50
997;DHT22;487;50.126;8.698;2023-08-01T20:25:31;19.10;90.30
997;DHT22;487;50.126;8.698;2023-08-01T20:27:59;19.00;90.50
997;DHT22;487;50.126;8.698;2023-08-01T20:30:28;19.10;92.10
997;DHT22;487;50.126;8.698;2023-08-01T20:32:56;19.00;92.80
997;DHT22;487;50.126;8.698;2023-08-01T20:35:24;19.00;94.40
997;DHT22;487;50.126;8.698;2023-08-01T20:37:52;19.10;95.30
997;DHT22;487;50.126;8.698;2023-08-01T20:40:20;19.00;96.30
997;DHT22;487;50.126;8.698;2023-08-01T20:42:50;19.00;98.10
997;DHT22;487;50.126;8.698;2023-08-01T20:45:18;19.00;99.10
997;DHT22;487;50.126;8.698;2023-08-01T20:47:47;19.00;99.90
997;DHT22;487;50.126;8.698;2023-08-01T20:50:16;19.00;99.90
997;DHT22;487;50.126;8.698;2023-08-01T20:52:43;19.20;99.90
997;DHT22;487;50.126;8.698;2023-08-01T20:55:12;19.20;99.90
997;DHT22;487;50.126;8.698;2023-08-01T20:57:39;19.30;99.90
997;DHT22;487;50.126;8.698;2023-08-01T21:00:08;19.40;99.90
997;DHT22;487;50.126;8.698;2023-08-01T21:02:36;19.30;99.90
997;DHT22;487;50.126;8.698;2023-08-01T21:05:07;19.30;99.90
997;DHT22;487;50.126;8.698;2023-08-01T21:07:35;19.30;99.90
997;DHT22;487;50.126;8.698;2023-08-01T21:10:03;19.40;99.90
997;DHT22;487;50.126;8.698;2023-08-01T21:12:31;19.30;99.90
997;DHT22;487;50.126;8.698;2023-08-01T21:15:01;19.30;99.90
997;DHT22;487;50.126;8.698;2023-08-01T21:17:29;19.30;99.90
997;DHT22;487;50.126;8.698;2023-08-01T21:24:55;19.30;99.90
997;DHT22;487;50.126;8.698;2023-08-01T21:27:23;19.30;99.90
997;DHT22;487;50.126;8.698;2023-08-01T21:29:51;19.30;99.90
997;DHT22;487;50.126;8.698;2023-08-01T21:32:19;19.30;99.90
997;DHT22;487;50.126;8.698;2023-08-01T21:34:48;19.10;99.90
997;DHT22;487;50.126;8.698;2023-08-01T21:37:15;19.10;99.90
997;DHT22;487;50.126;8.698;2023-08-01T21:39:45;19.10;99.90
997;DHT22;487;50.126;8.698;2023-08-01T21:42:13;19.00;99.90
997;DHT22;487;50.126;8.698;2023-08-01T21:44:41;19.00;99.90
997;DHT22;487;50.126;8.698;2023-08-01T21:49:41;19.10;99.90
997;DHT22;487;50.126;8.698;2023-08-01T21:52:09;19.10;99.90
997;DHT22;487;50.126;8.698;2023-08-01T21:54:37;19.00;99.90
997;DHT22;487;50.126;8.698;2023-08-01T21:57:06;19.00;99.90
997;DHT22;487;50.126;8.698;2023-08-01T21:59:34;19.00;99.90
997;DHT22;487;50.126;8.698;2023-08-01T22:02:02;18.90;99.90
997;DHT22;487;50.126;8.698;2023-08-01T22:04:30;18.90;99.90
997;DHT22;487;50.126;8.698;2023-08-01T22:06:58;18.90;99.90
997;DHT22;487;50.126;8.698;2023-08-01T22:09:26;18.90;99.90
997;DHT22;487;50.126;8.698;2023-08-01T22:11:54;18.90;99.90
997;DHT22;487;50.126;8.698;2023-08-01T22:14:23;18.90;99.90
997;DHT22;487;50.126;8.698;2023-08-01T22:16:51;19.00;99.90
997;DHT22;487;50.126;8.698;2023-08-01T22:19:19;18.90;99.90
997;DHT22;487;50.126;8.698;2023-08-01T22:21:46;18.90;99.90
997;DHT22;487;50.126;8.698;2023-08-01T22:26:42;18.80;99.90
997;DHT22;487;50.126;8.698;2023-08-01T22:29:10;18.80;99.90
997;DHT22;487;50.126;8.698;2023-08-01T22:31:39;18.70;99.90
997;DHT22;487;50.126;8.698;2023-08-01T22:34:07;18.60;99.90
997;DHT22;487;50.126;8.698;2023-08-01T22:36:37;18.50;99.90
997;DHT22;487;50.126;8.698;2023-08-01T22:39:06;18.50;99.90
997;DHT22;487;50.126;8.698;2023-08-01T22:41:34;18.40;99.90
997;DHT22;487;50.126;8.698;2023-08-01T22:44:01;18.30;99.90
997;DHT22;487;50.126;8.698;2023-08-01T22:46:29;18.20;99.90
997;DHT22;487;50.126;8.698;2023-08-01T22:48:59;18.10;99.90
997;DHT22;487;50.126;8.698;2023-08-01T22:51:26;18.10;99.90
997;DHT22;487;50.126;8.698;2023-08-01T22:53:55;18.10;99.90
997;DHT22;487;50.126;8.698;2023-08-01T22:56:23;18.20;99.90
997;DHT22;487;50.126;8.698;2023-08-01T22:58:51;18.20;99.90
997;DHT22;487;50.126;8.698;2023-08-01T23:01:19;18.20;99.90
997;DHT22;487;50.126;8.698;2023-08-01T23:03:47;18.30;99.90
997;DHT22;487;50.126;8.698;2023-08-01T23:06:16;18.20;99.90
997;DHT22;487;50.126;8.698;2023-08-01T23:08:44;18.30;99.90
997;DHT22;487;50.126;8.698;2023-08-01T23:11:12;18.30;99.90
997;DHT22;487;50.126;8.698;2023-08-01T23:13:40;18.30;99.90
997;DHT22;487;50.126;8.698;2023-08-01T23:16:08;18.30;99.90
997;DHT22;487;50.126;8.698;2023-08-01T23:18:36;18.30;99.90
997;DHT22;487;50.126;8.698;2023-08-01T23:21:04;18.40;99.90
997;DHT22;487;50.126;8.698;2023-08-01T23:23:33;18.40;99.90
997;DHT22;487;50.126;8.698;2023-08-01T23:26:02;18.40;99.90
997;DHT22;487;50.126;8.698;2023-08-01T23:28:31;18.50;99.90
997;DHT22;487;50.126;8.698;2023-08-01T23:30:59;18.50;99.90